Data for 09/24/2008

Time Sea-Level Adjusted Pressure Absolute Pressure Temperature Relative Humidity Dew Point   
(mb) (inHg) (mb) (inHg) (C) (F) (%) (C) (F)
00:05 1023 30.21 852 25.16 7.7 45.9 35 -6.8 19.8
00:10 1023 30.21 852 25.16 7.8 46 35 -6.8 19.7
00:15 1023 30.21 852 25.16 7.7 45.8 36 -6.3 20.7
00:20 1023 30.21 852 25.16 7.5 45.5 36 -6.5 20.4
00:25 1023 30.21 852 25.16 7.5 45.4 35 -7.1 19.3
00:30 1023 30.21 852 25.16 7.6 45.7 36 -6.7 20
00:35 1023 30.21 852 25.16 7.7 45.9 35 -6.8 19.8
00:40 1023 30.21 852 25.16 7.8 46 36 -6.4 20.4
00:45 1023 30.21 852 25.16 7.8 46.1 36 -6.4 20.6
00:50 1023 30.21 852 25.16 7.9 46.2 36 -6.3 20.6
00:55 1023 30.21 852 25.16 8 46.3 35 -6.4 20.4
01:00 1023 30.21 852 25.16 8 46.4 36 -6.2 20.8
01:05 1023 30.21 852 25.16 8 46.5 36 -6 21.3
01:10 1023 30.21 852 25.16 8 46.5 36 -5.9 21.3
01:15 1023 30.21 852 25.16 7.9 46.3 39 -5.3 22.5
01:20 1023 30.21 852 25.16 7.8 46.1 40 -4.9 23.2
01:25 1023 30.21 852 25.16 7.7 45.9 37 -6.1 21
01:30 1023 30.21 852 25.16 7.8 46 40 -5 23
01:35 1023 30.21 852 25.16 7.7 45.8 39 -5.5 22.2
01:40 1023 30.21 852 25.16 7.9 46.2 37 -5.7 21.7
01:45 1023 30.21 852 25.16 7.9 46.2 38 -5.7 21.8
01:50 1023 30.21 852 25.16 8 46.4 38 -5.6 22
01:55 1023 30.21 852 25.16 7.9 46.3 42 -4.3 24.2
02:00 1023 30.21 852 25.16 7.9 46.1 38 -5.5 22
02:05 1023 30.21 852 25.16 8 46.4 40 -4.8 23.4
02:10 1023 30.21 852 25.16 7.6 45.7 42 -4.4 24.1
02:15 1023 30.21 852 25.16 7.6 45.6 43 -4.2 24.4
02:20 1023 30.21 852 25.16 7.6 45.7 43 -4 24.8
02:25 1023 30.21 852 25.16 7.5 45.5 43 -4.2 24.5
02:30 1023 30.21 852 25.16 7.5 45.4 44 -3.9 24.9
02:35 1023 30.21 852 25.16 7.4 45.3 42 -4.7 23.5
02:40 1023 30.21 852 25.16 7.5 45.5 41 -4.7 23.5
02:45 1023 30.21 852 25.16 7.4 45.2 45 -3.7 25.4
02:50 1023 30.21 852 25.16 7.2 45 42 -4.9 23.2
02:55 1023 30.21 852 25.16 7.3 45.1 42 -4.7 23.6
03:00 1023 30.21 852 25.16 7.3 45.1 42 -4.7 23.6
03:05 1023 30.21 852 25.16 7.4 45.4 42 -4.5 23.9
03:10 1023 30.21 852 25.16 7.4 45.3 44 -4 24.8
03:15 1023 30.21 852 25.16 7.3 45.1 44 -4.1 24.7
03:20 1023 30.21 852 25.16 7.2 44.9 44 -4.2 24.4
03:25 1022 30.18 852 25.16 7.2 44.9 44 -4.4 24.2
03:30 1022 30.18 852 25.16 7.3 45.2 44 -4.2 24.4
03:35 1022 30.18 852 25.16 7.2 44.9 47 -3.4 25.8
03:40 1022 30.18 852 25.16 6.8 44.2 48 -3.5 25.7
03:45 1022 30.18 852 25.16 6.6 43.9 48 -3.6 25.6
03:50 1022 30.18 852 25.16 6.6 43.9 49 -3.4 25.8
03:55 1022 30.18 852 25.16 6.9 44.5 48 -3.4 25.8
04:00 1022 30.18 852 25.16 7.1 44.9 47 -3.5 25.7
04:05 1023 30.21 852 25.16 7.2 44.9 46 -3.8 25.2
04:10 1023 30.21 852 25.16 8.1 46.5 41 -4.4 24.2
04:15 1023 30.21 852 25.16 7.9 46.1 45 -3.5 25.8
04:20 1023 30.21 852 25.16 7.3 45.2 47 -3.3 26
04:25 1023 30.21 852 25.16 6.9 44.4 50 -2.8 27
04:30 1023 30.21 852 25.16 6.6 43.9 52 -2.5 27.4
04:35 1023 30.21 852 25.16 6.6 44 47 -4 24.9
04:40 1023 30.21 852 25.16 7.2 44.9 42 -5 23
04:45 1022 30.18 852 25.16 7.5 45.5 45 -3.7 25.4
04:50 1022 30.18 852 25.16 7.4 45.3 44 -4 24.8
04:55 1022 30.18 852 25.16 7.1 44.8 47 -3.5 25.8
05:00 1022 30.18 852 25.16 7 44.5 46 -3.9 25
05:05 1022 30.18 852 25.16 6.9 44.4 45 -4.1 24.6
05:10 1022 30.18 852 25.16 6.7 44.1 47 -3.9 25
05:15 1022 30.18 852 25.16 6.5 43.6 48 -3.8 25.1
05:20 1022 30.18 852 25.16 6.4 43.5 49 -3.5 25.7
05:25 1022 30.18 852 25.16 6.3 43.3 48 -3.9 24.9
05:30 1022 30.18 852 25.16 6.4 43.6 48 -3.7 25.3
05:35 1022 30.18 852 25.16 6.6 44 47 -4 24.8
05:40 1022 30.18 852 25.16 6.9 44.3 47 -3.8 25.2
05:45 1022 30.18 852 25.16 6.8 44.3 47 -3.8 25.1
05:50 1022 30.18 852 25.16 6.8 44.2 46 -4 24.9
05:55 1022 30.18 851 25.13 6.7 44 48 -3.7 25.4
06:00 1022 30.18 851 25.13 6.4 43.4 50 -3.3 26.1
06:05 1022 30.18 851 25.13 6.1 43 49 -3.8 25.2
06:10 1022 30.18 851 25.13 6.3 43.3 47 -4.2 24.5
06:15 1022 30.18 851 25.13 6.5 43.7 47 -3.9 25
06:20 1022 30.18 851 25.13 6.8 44.2 44 -4.7 23.5
06:25 1022 30.18 851 25.13 7.2 44.9 44 -4.2 24.5
06:30 1022 30.18 851 25.13 7.1 44.8 44 -4.2 24.4
06:35 1022 30.18 851 25.13 7.1 44.8 44 -4.5 24
06:40 1022 30.18 851 25.13 7.1 44.9 45 -4 24.8
06:45 1022 30.18 851 25.13 6.7 44 49 -3.2 26.2
06:50 1022 30.18 851 25.13 6.2 43.1 49 -3.7 25.3
06:55 1022 30.18 851 25.13 6.1 42.9 49 -3.9 25
07:00 1022 30.18 851 25.13 5.9 42.6 50 -3.8 25.1
07:05 1022 30.18 851 25.13 6 42.8 47 -4.4 24.2
07:10 1022 30.18 851 25.13 6.3 43.4 44 -5.1 22.9
07:15 1022 30.18 851 25.13 6.5 43.6 44 -4.8 23.4
07:20 1022 30.18 851 25.13 6.6 43.8 43 -5 23
07:25 1022 30.18 851 25.13 6.4 43.4 46 -4.5 23.9
07:30 1022 30.18 851 25.13 6.1 43 47 -4.4 24.2
07:35 1022 30.18 852 25.16 5.9 42.7 46 -4.8 23.4
07:40 1022 30.18 852 25.16 6.4 43.6 43 -5.3 22.4
07:45 1023 30.21 852 25.16 6.8 44.3 42 -5.3 22.5
07:50 1023 30.21 852 25.16 7 44.5 42 -5 23.1
07:55 1023 30.21 852 25.16 7.1 44.8 42 -4.8 23.4
08:00 1023 30.21 852 25.16 7.1 44.7 43 -4.7 23.6
08:05 1023 30.21 852 25.16 7 44.7 42 -4.8 23.3
08:10 1023 30.21 852 25.16 7.3 45.1 43 -4.5 23.8
08:15 1023 30.21 852 25.16 7.5 45.5 41 -5 23
08:20 1023 30.21 852 25.16 7.7 45.9 41 -4.7 23.6
08:25 1023 30.21 852 25.16 7.8 46 42 -4.3 24.3
08:30 1023 30.21 852 25.16 7.8 46 42 -4.2 24.5
08:35 1023 30.21 852 25.16 7.8 46.1 41 -4.5 23.9
08:40 1023 30.21 852 25.16 8.2 46.8 40 -4.4 24
08:45 1023 30.21 852 25.16 8.8 47.8 41 -3.8 25.1
08:50 1023 30.21 852 25.16 9.3 48.7 40 -3.6 25.6
08:55 1023 30.21 852 25.16 10.1 50.1 37 -3.8 25.1
09:00 1023 30.21 852 25.16 10.8 51.4 36 -3.5 25.6
09:05 1023 30.21 852 25.16 11.1 52 35 -3.7 25.3
09:10 1023 30.21 852 25.16 10.9 51.6 35 -3.9 25.1
09:15 1023 30.21 852 25.16 10.7 51.3 35 -4.1 24.7
09:20 1023 30.21 852 25.16 11.2 52.1 34 -3.9 24.9
09:25 1023 30.21 852 25.16 11.5 52.6 33 -4.2 24.5
09:30 1023 30.21 852 25.16 11.8 53.2 34 -3.7 25.4
09:35 1023 30.21 852 25.16 12.5 54.4 34 -3 26.5
09:40 1023 30.21 852 25.16 12.8 55 30 -4.2 24.4
09:45 1023 30.21 852 25.16 13.3 56 30 -3.7 25.3
09:50 1023 30.21 852 25.16 13.4 56.2 28 -4.5 23.9
09:55 1023 30.21 852 25.16 13.9 57 27 -4.6 23.8
10:00 1023 30.21 852 25.16 14.4 57.8 27 -4.4 24.2
10:05 1023 30.21 852 25.16 14.2 57.6 28 -3.8 25.2
10:10 1022 30.18 852 25.16 14.5 58.2 27 -4.2 24.5
10:15 1022 30.18 852 25.16 15.4 59.7 25 -4.6 23.7
10:20 1022 30.18 852 25.16 15.6 60.1 25 -4.4 24
10:25 1022 30.18 852 25.16 15.6 60 26 -4 24.9
10:30 1022 30.18 852 25.16 16.2 61.2 26 -3.1 26.4
10:35 1022 30.18 852 25.16 16.9 62.4 23 -4 24.8
10:40 1022 30.18 852 25.16 17.2 62.9 23 -3.9 25
10:45 1022 30.18 852 25.16 17 62.6 23 -4.3 24.3
10:50 1022 30.18 851 25.13 16.8 62.3 25 -3.1 26.4
10:55 1022 30.18 851 25.13 16.6 61.8 26 -3 26.6
11:00 1022 30.18 851 25.13 17 62.5 26 -2.3 27.8
11:05 1022 30.18 851 25.13 16.7 62.1 26 -2.8 27
11:10 1022 30.18 851 25.13 17.1 62.9 25 -2.7 27.1
11:15 1022 30.18 851 25.13 17.2 62.9 25 -2.7 27.2
11:20 1022 30.18 851 25.13 17.1 62.7 26 -2.5 27.5
11:25 1022 30.18 851 25.13 17.2 62.9 26 -2.6 27.4
11:30 1022 30.18 851 25.13 17.6 63.6 24 -3.3 26
11:35 1022 30.18 851 25.13 18.1 64.6 23 -3.3 26
11:40 1022 30.18 851 25.13 18.5 65.3 20 -4.9 23.2
11:45 1022 30.18 851 25.13 18.6 65.4 18 -5.8 21.5
11:50 1022 30.18 851 25.13 18.3 64.9 21 -4.5 24
11:55 1022 30.18 851 25.13 18.7 65.6 22 -3.1 26.4
12:00 1022 30.18 851 25.13 18.5 65.3 21 -4.3 24.3
12:05 1022 30.18 851 25.13 18.3 64.9 22 -3.7 25.3
12:10 1022 30.18 851 25.13 19 66.2 22 -3.3 26.1
12:15 1021 30.15 851 25.13 19 66.2 22 -2.9 26.7
12:20 1021 30.15 851 25.13 18.8 65.8 21 -4 24.7
12:25 1021 30.15 850 25.1 19.1 66.4 20 -4 24.7
12:30 1021 30.15 850 25.1 19.4 66.8 21 -3.6 25.4
12:35 1021 30.15 850 25.1 19.9 67.8 18 -4.9 23.2
12:40 1021 30.15 850 25.1 19.2 66.5 19 -5.1 22.8
12:45 1021 30.15 850 25.1 19.1 66.4 19 -4.8 23.4
12:50 1021 30.15 850 25.1 19.2 66.6 19 -4.7 23.5
12:55 1021 30.15 850 25.1 20.1 68.1 18 -4.8 23.3
13:00 1021 30.15 850 25.1 20.5 68.9 17 -5 23
13:05 1021 30.15 850 25.1 20.3 68.5 15 -6.8 19.7
13:10 1021 30.15 850 25.1 20.6 69 17 -5.3 22.4
13:15 1021 30.15 850 25.1 21.2 70.1 16 -5.8 21.6
13:20 1021 30.15 850 25.1 21.4 70.5 16 -5 23
13:25 1021 30.15 850 25.1 21.3 70.4 15 -6.1 21
13:30 1021 30.15 850 25.1 21.6 70.8 15 -5.8 21.5
13:35 1021 30.15 850 25.1 22.6 72.6 15 -5.6 21.9
13:40 1020 30.12 850 25.1 22.4 72.4 14 -5.8 21.5
13:45 1020 30.12 850 25.1 22.5 72.5 14 -6.2 20.8
13:50 1020 30.12 850 25.1 22.7 72.9 15 -5.1 22.8
13:55 1020 30.12 849 25.07 22.6 72.7 14 -5.7 21.8
14:00 1020 30.12 849 25.07 22.4 72.3 15 -5.6 22
14:05 1020 30.12 849 25.07 22.2 72 15 -5.7 21.8
14:10 1020 30.12 849 25.07 22.6 72.7 14 -5.9 21.4
14:15 1020 30.12 849 25.07 22.3 72.2 15 -5.7 21.7
14:20 1020 30.12 849 25.07 22.2 71.9 15 -5.7 21.7
14:25 1020 30.12 849 25.07 22.4 72.4 15 -5.5 22
14:30 1020 30.12 849 25.07 23 73.4 14 -5.4 22.3
14:35 1020 30.12 849 25.07 23.1 73.5 14 -5.8 21.6
14:40 1020 30.12 849 25.07 22.9 73.3 14 -5.9 21.3
14:45 1020 30.12 849 25.07 23 73.5 13 -6.4 20.5
14:50 1020 30.12 849 25.07 21.6 70.8 15 -5.8 21.5
14:55 1020 30.12 849 25.07 22.4 72.3 13 -7.4 18.7
15:00 1020 30.12 849 25.07 22.3 72.1 13 -6.9 19.6
15:05 1020 30.12 849 25.07 22 71.7 13 -7.1 19.2
15:10 1020 30.12 849 25.07 22.6 72.7 13 -7 19.4
15:15 1020 30.12 849 25.07 23.1 73.6 13 -6.3 20.6
15:20 1020 30.12 849 25.07 22.4 72.3 13 -6.8 19.7
15:25 1019 30.09 849 25.07 22.8 73 14 -6.3 20.6
15:30 1019 30.09 849 25.07 23.3 74 14 -5.9 21.4
15:35 1019 30.09 849 25.07 23.6 74.4 13 -6.6 20.1
15:40 1019 30.09 849 25.07 23.9 75.1 13 -5.8 21.5
15:45 1019 30.09 849 25.07 23.2 73.8 13 -6.1 20.9
15:50 1019 30.09 848 25.04 23.2 73.8 13 -6.3 20.7
15:55 1019 30.09 848 25.04 23.4 74.1 14 -5.9 21.4
16:00 1019 30.09 848 25.04 23.6 74.5 13 -6.1 21
16:05 1019 30.09 848 25.04 23.6 74.5 13 -6 21.2
16:10 1019 30.09 848 25.04 23.7 74.7 13 -6.5 20.4
16:15 1019 30.09 848 25.04 23.7 74.7 13 -6.5 20.3
16:20 1019 30.09 848 25.04 23.5 74.4 13 -5.9 21.3
16:25 1019 30.09 848 25.04 23.7 74.7 12 -6.8 19.8
16:30 1019 30.09 848 25.04 24.1 75.3 13 -6 21.3
16:35 1019 30.09 848 25.04 24.1 75.4 13 -5.9 21.4
16:40 1019 30.09 848 25.04 23.7 74.6 13 -6.3 20.7
16:45 1019 30.09 848 25.04 24.1 75.4 13 -5.9 21.3
16:50 1019 30.09 848 25.04 24.3 75.8 12 -6.3 20.7
16:55 1019 30.09 848 25.04 23.7 74.7 13 -6.2 20.8
17:00 1019 30.09 848 25.04 24.1 75.5 13 -6.1 21
17:05 1019 30.09 848 25.04 24 75.2 14 -5 23
17:10 1019 30.09 848 25.04 23.5 74.2 13 -6.2 20.9
17:15 1019 30.09 848 25.04 23.2 73.7 14 -6 21.2
17:20 1019 30.09 848 25.04 23.4 74.2 13 -5.9 21.4
17:25 1019 30.09 848 25.04 23.6 74.4 14 -5 23
17:30 1019 30.09 848 25.04 23.2 73.7 15 -4.8 23.4
17:35 1019 30.09 848 25.04 23.9 75 14 -5.2 22.6
17:40 1019 30.09 848 25.04 24.1 75.4 14 -4.8 23.3
17:45 1019 30.09 848 25.04 23.3 73.9 15 -4.5 23.8
17:50 1019 30.09 848 25.04 22.7 72.9 14 -5.7 21.8
17:55 1019 30.09 848 25.04 22.3 72.2 15 -5.4 22.3
18:00 1019 30.09 848 25.04 22 71.7 17 -4.3 24.3
18:05 1019 30.09 848 25.04 21.7 71.1 19 -3.1 26.5
18:10 1018 30.06 848 25.04 21.5 70.7 21 -1.8 28.7
18:15 1018 30.06 848 25.04 21.6 70.8 19 -2.6 27.3
18:20 1019 30.09 848 25.04 21.7 71.1 19 -3 26.7
18:25 1019 30.09 848 25.04 21.8 71.3 16 -4.8 23.3
18:30 1019 30.09 848 25.04 21.7 71 18 -3.5 25.6
18:35 1019 30.09 848 25.04 21.3 70.4 27 1.9 35.5
18:40 1019 30.09 848 25.04 20.8 69.4 30 2.9 37.3
18:45 1019 30.09 848 25.04 20.3 68.6 28 1.4 34.5
18:50 1019 30.09 848 25.04 20 68.1 30 1.9 35.5
18:55 1019 30.09 848 25.04 19.9 67.7 26 0.1 32.3
19:00 1019 30.09 848 25.04 19.6 67.3 29 1.1 33.9
19:05 1019 30.09 848 25.04 19.3 66.8 32 2.5 36.4
19:10 1019 30.09 848 25.04 18.9 66.1 31 1.5 34.7
19:15 1018 30.06 848 25.04 18.6 65.4 33 2.2 35.9
19:20 1019 30.09 848 25.04 18.4 65.1 34 2.4 36.2
19:25 1019 30.09 848 25.04 18.2 64.8 33 1.9 35.5
19:30 1018 30.06 848 25.04 18.2 64.7 30 0.6 33.1
19:35 1019 30.09 848 25.04 18 64.5 30 0.5 32.8
19:40 1019 30.09 848 25.04 18.1 64.5 29 -0.3 31.4
19:45 1019 30.09 848 25.04 17.8 64.1 34 1.8 35.3
19:50 1019 30.09 848 25.04 17.4 63.4 32 0.7 33.2
19:55 1019 30.09 848 25.04 17 62.6 33 0.6 33.1
20:00 1019 30.09 848 25.04 16.6 61.8 34 0.7 33.3
20:05 1019 30.09 848 25.04 16.4 61.5 32 -0.1 31.8
20:10 1019 30.09 848 25.04 16.3 61.4 33 0.2 32.4
20:15 1019 30.09 848 25.04 16.3 61.3 33 -0 31.9
20:20 1019 30.09 848 25.04 16.2 61.2 32 -0.3 31.5
20:25 1019 30.09 848 25.04 16.2 61.2 31 -1 30.2
20:30 1019 30.09 848 25.04 16.4 61.4 30 -1.3 29.7
20:35 1019 30.09 848 25.04 16.5 61.7 29 -1.5 29.4
20:40 1019 30.09 848 25.04 16.4 61.5 31 -0.5 31.1
20:45 1019 30.09 848 25.04 16.4 61.4 32 -0.1 31.9
20:50 1019 30.09 848 25.04 16.3 61.4 31 -0.7 30.7
20:55 1019 30.09 848 25.04 16.2 61.2 27 -2.5 27.5
21:00 1019 30.09 848 25.04 15.9 60.6 31 -1.1 30
21:05 1019 30.09 848 25.04 15.3 59.5 31 -1.9 28.6
21:10 1019 30.09 848 25.04 15.4 59.7 29 -2.5 27.5
21:15 1019 30.09 848 25.04 15.2 59.4 29 -2.5 27.6
21:20 1019 30.09 848 25.04 15.1 59.1 29 -3 26.7
21:25 1019 30.09 848 25.04 15 58.9 29 -3 26.5
21:30 1019 30.09 848 25.04 14.9 58.8 28 -3.6 25.5
21:35 1019 30.09 848 25.04 15.3 59.5 26 -3.9 25
21:40 1019 30.09 848 25.04 15.3 59.5 27 -3.4 25.9
21:45 1019 30.09 848 25.04 15 59 26 -4.4 24
21:50 1019 30.09 848 25.04 15.2 59.3 26 -4 24.9
21:55 1019 30.09 848 25.04 15.2 59.3 26 -4.2 24.4
22:00 1019 30.09 848 25.04 15.3 59.6 25 -4.6 23.7
22:05 1019 30.09 848 25.04 15.4 59.7 25 -4.5 23.9
22:10 1019 30.09 848 25.04 15.3 59.5 26 -4 24.7
22:15 1019 30.09 848 25.04 15.1 59.1 25 -4.7 23.6
22:20 1019 30.09 848 25.04 15.5 59.8 23 -5.3 22.5
22:25 1019 30.09 848 25.04 15.8 60.4 23 -5.1 22.8
22:30 1019 30.09 848 25.04 15.8 60.5 23 -5.1 22.9
22:35 1019 30.09 848 25.04 15.8 60.5 23 -5.4 22.2
22:40 1018 30.06 848 25.04 16 60.9 23 -5.1 22.8
22:45 1018 30.06 848 25.04 16.2 61.1 22 -5.5 22.1
22:50 1018 30.06 848 25.04 16.1 60.9 23 -4.8 23.4
22:55 1018 30.06 848 25.04 15.9 60.7 24 -4.7 23.5
23:00 1018 30.06 848 25.04 15.5 59.9 23 -5.6 22
23:05 1018 30.06 848 25.04 15.5 59.8 24 -4.7 23.5
23:10 1018 30.06 848 25.04 15.2 59.4 25 -4.5 23.8
23:15 1018 30.06 848 25.04 14.7 58.5 25 -4.8 23.3
23:20 1018 30.06 848 25.04 14.7 58.4 26 -4.7 23.5
23:25 1018 30.06 848 25.04 14.6 58.3 25 -5 23.1
23:30 1018 30.06 848 25.04 14.9 58.8 25 -5 23
23:35 1018 30.06 847 25.01 14.8 58.6 25 -5 23.1
23:40 1018 30.06 847 25.01 14.5 58.1 26 -4.6 23.7
23:45 1018 30.06 847 25.01 14.3 57.7 25 -5.4 22.2
23:50 1018 30.06 847 25.01 14.7 58.5 25 -4.9 23.2
23:55 1018 30.06 847 25.01 14.7 58.4 23 -6 21.2
24:00 1018 30.06 847 25.01 15.2 59.3 23 -5.6 21.8